Time;durP1;ratioP1;P1;durP2;ratioP2;P2;SDS_P1;SDS_P2;PMS_P1;PMS_P2;Temp;Humidity;BMP_temperature;BMP_pressure;BME280_temperature;BME280_humidity;BME280_pressure;Samples;Min_cycle;Max_cycle;Signal;HPM_P1;HPM_P2
2023/03/11 00:01:46;;;;;;;;;;;;;;;;;;7371445;19;1833;-66
2023/03/11 00:04:14;;;;;;;;;;;;;;;;;;7374409;19;1601;-66
2023/03/11 00:06:42;;;;;;;;;;;;;;;;;;7372337;19;1886;-66
2023/03/11 00:09:10;;;;;;;;;;;;;;;;;;7371917;19;1671;-66
2023/03/11 00:11:38;;;;;;;;;;;;;;;;;;7367820;19;1875;-65
2023/03/11 00:14:07;;;;;;;;;;;;;;;;;;7368686;19;1861;-66
2023/03/11 00:16:35;;;;;;;;;;;;;;;;;;7371938;19;1848;-65
2023/03/11 00:19:03;;;;;;;;;;;;;;;;;;7372086;19;1866;-66
2023/03/11 00:21:31;;;;;;;;;;;;;;;;;;7371277;19;1870;-66
2023/03/11 00:24:02;;;;;;;;;;;;;;;;;;7369337;19;1867;-66
2023/03/11 00:26:30;;;;;;;;;;;;;;;;;;7369469;19;791;-66
2023/03/11 00:28:58;;;;;;;;;;;;;;;;;;7368028;19;1801;-66
2023/03/11 00:31:27;;;;;;;;;;;;;;;;;;7366770;19;1853;-66
2023/03/11 00:33:56;;;;;;;;;;;;;;;;;;7365687;19;1357;-65
2023/03/11 00:36:24;;;;;;;;;;;;;;;;;;7368436;19;863;-66
2023/03/11 00:38:52;;;;;;;;;;;;;;;;;;7367829;19;1883;-66
2023/03/11 00:41:20;;;;;;;;;;;;;;;;;;7370488;19;1884;-66
2023/03/11 00:43:48;;;;;;;;;;;;;;;;;;7366170;19;1308;-66
2023/03/11 00:46:16;;;;;;;;;;;;;;;;;;7367069;19;840;-65
2023/03/11 00:48:45;;;;;;;;;;;;;;;;;;7367536;19;857;-65
2023/03/11 00:51:13;;;;;;;;;;;;;;;;;;7370618;19;1982;-66
2023/03/11 00:53:41;;;;;;;;;;;;;;;;;;7367908;19;1707;-66
2023/03/11 00:56:10;;;;;;;;;;;;;;;;;;7368118;19;1913;-66
2023/03/11 00:58:39;;;;;;;;;;;;;;;;;;7367765;19;1763;-66
2023/03/11 01:01:08;;;;;;;;;;;;;;;;;;7370133;19;1757;-66
2023/03/11 01:03:36;;;;;;;;;;;;;;;;;;7369217;19;2154;-66
2023/03/11 01:06:04;;;;;;;;;;;;;;;;;;7371058;19;2156;-65
2023/03/11 01:08:32;;;;;;;;;;;;;;;;;;7367774;19;1962;-66
2023/03/11 01:11:01;;;;;;;;;;;;;;;;;;7369766;19;1969;-66
2023/03/11 01:13:29;;;;;;;;;;;;;;;;;;7365523;19;1314;-67
2023/03/11 01:15:57;;;;;;;;;;;;;;;;;;7370827;19;1848;-67
2023/03/11 01:18:25;;;;;;;;;;;;;;;;;;7366240;19;845;-66
2023/03/11 01:20:54;;;;;;;;;;;;;;;;;;7370897;19;1511;-66
2023/03/11 01:23:22;;;;;;;;;;;;;;;;;;7367177;19;1928;-67
2023/03/11 01:25:50;;;;;;;;;;;;;;;;;;7370361;19;1902;-67
2023/03/11 01:28:19;;;;;;;;;;;;;;;;;;7369750;19;1859;-67
2023/03/11 01:30:47;;;;;;;;;;;;;;;;;;7369763;19;1847;-67
2023/03/11 01:33:16;;;;;;;;;;;;;;;;;;7368676;19;1865;-67
2023/03/11 01:35:44;;;;;;;;;;;;;;;;;;7371142;19;1812;-67
2023/03/11 01:38:12;;;;;;;;;;;;;;;;;;7370065;19;1864;-67
2023/03/11 01:40:41;;;;;;;;;;;;;;;;;;7370061;19;1804;-67
2023/03/11 01:43:11;;;;;;;;;;;;;;;;;;7368376;19;1885;-67
2023/03/11 01:45:39;;;;;;;;;;;;;;;;;;7368545;19;1844;-67
2023/03/11 01:48:08;;;;;;;;;;;;;;;;;;7364651;19;820;-67
2023/03/11 01:50:37;;;;;;;;;;;;;;;;;;7368625;19;1858;-67
2023/03/11 01:53:05;;;;;;;;;;;;;;;;;;7363987;19;1860;-67
2023/03/11 01:55:33;;;;;;;;;;;;;;;;;;7366739;19;1858;-67
2023/03/11 01:58:02;;;;;;;;;;;;;;;;;;7368938;19;1722;-67
2023/03/11 02:00:30;;;;;;;;;;;;;;;;;;7369968;19;1955;-67
2023/03/11 02:02:58;;;;;;;;;;;;;;;;;;7367757;19;1898;-66
2023/03/11 02:05:26;;;;;;;;;;;;;;;;;;7368089;19;1891;-67
2023/03/11 02:07:54;;;;;;;;;;;;;;;;;;7364856;19;888;-67
2023/03/11 02:10:25;;;;;;;;;;;;;;;;;;7367638;19;1900;-67
2023/03/11 02:12:53;;;;;;;;;;;;;;;;;;7366639;19;1845;-67
2023/03/11 02:15:23;;;;;;;;;;;;;;;;;;7370707;19;1893;-66
2023/03/11 02:17:52;;;;;;;;;;;;;;;;;;7364795;19;707;-67
2023/03/11 02:20:20;;;;;;;;;;;;;;;;;;7367019;19;1902;-67
2023/03/11 02:22:49;;;;;;;;;;;;;;;;;;7365816;19;1887;-67
2023/03/11 02:25:17;;;;;;;;;;;;;;;;;;7364990;19;850;-67
2023/03/11 02:27:46;;;;;;;;;;;;;;;;;;7365805;19;1712;-67
2023/03/11 02:30:14;;;;;;;;;;;;;;;;;;7365378;19;1562;-68
2023/03/11 02:32:46;;;;;;;;;;;;;;;;;;7362924;19;1857;-67
2023/03/11 02:35:16;;;;;;;;;;;;;;;;;;7362674;19;1031;-67
2023/03/11 02:37:45;;;;;;;;;;;;;;;;;;7365091;19;903;-67
2023/03/11 02:40:13;;;;;;;;;;;;;;;;;;7368474;19;1725;-67
2023/03/11 02:42:41;;;;;;;;;;;;;;;;;;7365020;19;1274;-67
2023/03/11 02:45:09;;;;;;;;;;;;;;;;;;7365143;19;783;-66
2023/03/11 02:47:37;;;;;;;;;;;;;;;;;;7363891;19;818;-67
2023/03/11 02:50:06;;;;;;;;;;;;;;;;;;7364218;19;849;-66
2023/03/11 02:52:35;;;;;;;;;;;;;;;;;;7360612;19;1856;-66
2023/03/11 02:55:03;;;;;;;;;;;;;;;;;;7364728;19;756;-66
2023/03/11 02:57:31;;;;;;;;;;;;;;;;;;7363704;19;862;-66
2023/03/11 03:00:05;;;;;;;;;;;;;;;;;;7363443;19;815;-67
2023/03/11 03:02:33;;;;;;;;;;;;;;;;;;7362063;19;1282;-67
2023/03/11 03:05:01;;;;;;;;;;;;;;;;;;7365079;19;789;-66
2023/03/11 03:07:29;;;;;;;;;;;;;;;;;;7363304;19;811;-67
2023/03/11 03:09:57;;;;;;;;;;;;;;;;;;7363168;19;763;-67
2023/03/11 03:12:26;;;;;;;;;;;;;;;;;;7360781;19;1847;-66
2023/03/11 03:14:54;;;;;;;;;;;;;;;;;;7362867;19;763;-66
2023/03/11 03:17:22;;;;;;;;;;;;;;;;;;7371954;19;1674;-66
2023/03/11 03:19:50;;;;;;;;;;;;;;;;;;7368703;19;814;-66
2023/03/11 03:22:19;;;;;;;;;;;;;;;;;;7367686;19;1336;-66
2023/03/11 03:24:47;;;;;;;;;;;;;;;;;;7370723;19;1902;-67
2023/03/11 03:27:16;;;;;;;;;;;;;;;;;;7369793;19;1665;-66
2023/03/11 03:29:44;;;;;;;;;;;;;;;;;;7369933;19;1874;-68
2023/03/11 03:32:12;;;;;;;;;;;;;;;;;;7369645;19;1866;-68
2023/03/11 03:34:40;;;;;;;;;;;;;;;;;;7373134;19;1857;-68
2023/03/11 03:37:09;;;;;;;;;;;;;;;;;;7373010;19;2430;-67
2023/03/11 03:39:37;;;;;;;;;;;;;;;;;;7371623;19;1911;-68
2023/03/11 03:42:06;;;;;;;;;;;;;;;;;;7369428;19;1337;-67
2023/03/11 03:44:36;;;;;;;;;;;;;;;;;;7370278;19;1881;-68
2023/03/11 03:47:04;;;;;;;;;;;;;;;;;;7368488;19;1711;-67
2023/03/11 03:49:32;;;;;;;;;;;;;;;;;;7368879;19;1895;-67
2023/03/11 03:52:00;;;;;;;;;;;;;;;;;;7367940;19;1849;-67
2023/03/11 03:54:32;;;;;;;;;;;;;;;;;;7368329;19;1996;-68
2023/03/11 03:57:00;;;;;;;;;;;;;;;;;;7372082;19;1866;-68
2023/03/11 03:59:30;;;;;;;;;;;;;;;;;;7368859;19;1904;-68
2023/03/11 04:01:59;;;;;;;;;;;;;;;;;;7367776;19;1868;-68
2023/03/11 04:04:30;;;;;;;;;;;;;;;;;;7370903;19;1894;-68
2023/03/11 04:06:59;;;;;;;;;;;;;;;;;;7371614;19;1996;-68
2023/03/11 04:09:27;;;;;;;;;;;;;;;;;;7368845;19;1775;-68
2023/03/11 04:11:55;;;;;;;;;;;;;;;;;;7369235;19;1855;-68
2023/03/11 04:14:23;;;;;;;;;;;;;;;;;;7368403;19;1916;-68
2023/03/11 04:16:57;;;;;;;;;;;;;;;;;;7368276;19;790;-68
2023/03/11 04:19:25;;;;;;;;;;;;;;;;;;7368118;19;1886;-68
2023/03/11 04:21:53;;;;;;;;;;;;;;;;;;7371157;19;1871;-68
2023/03/11 04:24:23;;;;;;;;;;;;;;;;;;7368902;19;1860;-68
2023/03/11 04:26:51;;;;;;;;;;;;;;;;;;7367402;19;824;-68
2023/03/11 04:29:20;;;;;;;;;;;;;;;;;;7367613;19;1902;-68
2023/03/11 04:31:51;;;;;;;;;;;;;;;;;;7366972;19;1860;-67
2023/03/11 04:34:19;;;;;;;;;;;;;;;;;;7368053;19;1916;-68
2023/03/11 04:36:47;;;;;;;;;;;;;;;;;;7369544;19;1898;-68
2023/03/11 04:39:18;;;;;;;;;;;;;;;;;;7367662;19;1934;-68
2023/03/11 04:41:47;;;;;;;;;;;;;;;;;;7372975;19;1839;-68
2023/03/11 04:44:19;;;;;;;;;;;;;;;;;;7367127;19;1904;-68
2023/03/11 04:46:47;;;;;;;;;;;;;;;;;;7367483;19;823;-68
2023/03/11 04:49:16;;;;;;;;;;;;;;;;;;7367709;19;1788;-68
2023/03/11 04:51:45;;;;;;;;;;;;;;;;;;7367420;19;1858;-68
2023/03/11 04:54:15;;;;;;;;;;;;;;;;;;7368461;19;1886;-68
2023/03/11 04:56:43;;;;;;;;;;;;;;;;;;7368673;19;1863;-68
2023/03/11 04:59:11;;;;;;;;;;;;;;;;;;7366333;19;1759;-68
2023/03/11 05:01:40;;;;;;;;;;;;;;;;;;7368016;19;2138;-69
2023/03/11 05:04:10;;;;;;;;;;;;;;;;;;7365150;19;2271;-68
2023/03/11 05:06:39;;;;;;;;;;;;;;;;;;7367425;19;1929;-68
2023/03/11 05:09:07;;;;;;;;;;;;;;;;;;7368284;19;1918;-68
2023/03/11 05:11:38;;;;;;;;;;;;;;;;;;7369343;19;1885;-68
2023/03/11 05:14:06;;;;;;;;;;;;;;;;;;7365944;19;1774;-68
2023/03/11 05:16:35;;;;;;;;;;;;;;;;;;7369135;19;1865;-68
2023/03/11 05:19:29;;;;;;;;;;;;;;;;;;7366280;19;1889;-68
2023/03/11 05:21:52;;;;;;;;;;;;;;;;;;7367196;19;1286;-68
2023/03/11 05:24:20;;;;;;;;;;;;;;;;;;7370392;19;1867;-68
2023/03/11 05:26:48;;;;;;;;;;;;;;;;;;7370256;19;1879;-68
2023/03/11 05:29:17;;;;;;;;;;;;;;;;;;7367191;19;1877;-68
2023/03/11 05:31:46;;;;;;;;;;;;;;;;;;7368456;19;1861;-68
2023/03/11 05:34:14;;;;;;;;;;;;;;;;;;7363830;19;1906;-69
2023/03/11 05:36:42;;;;;;;;;;;;;;;;;;7367870;19;1897;-67
2023/03/11 05:39:11;;;;;;;;;;;;;;;;;;7365621;19;1887;-67
2023/03/11 05:41:39;;;;;;;;;;;;;;;;;;7369566;19;1328;-68
2023/03/11 05:44:07;;;;;;;;;;;;;;;;;;7365565;19;1755;-67
2023/03/11 05:46:35;;;;;;;;;;;;;;;;;;7368723;19;1906;-68
2023/03/11 05:49:05;;;;;;;;;;;;;;;;;;7365153;19;1880;-67
2023/03/11 05:51:34;;;;;;;;;;;;;;;;;;7368975;19;1868;-67
2023/03/11 05:54:02;;;;;;;;;;;;;;;;;;7362913;19;1925;-67
2023/03/11 05:56:38;;;;;;;;;;;;;;;;;;7364616;19;794;-68
2023/03/11 05:59:06;;;;;;;;;;;;;;;;;;7367957;19;1615;-67
2023/03/11 06:01:36;;;;;;;;;;;;;;;;;;7367890;19;1834;-68
2023/03/11 06:04:05;;;;;;;;;;;;;;;;;;7367340;19;1978;-67
2023/03/11 06:06:33;;;;;;;;;;;;;;;;;;7369030;19;2230;-68
2023/03/11 06:09:02;;;;;;;;;;;;;;;;;;7364723;19;823;-68
2023/03/11 06:11:31;;;;;;;;;;;;;;;;;;7367241;19;796;-68
2023/03/11 06:13:59;;;;;;;;;;;;;;;;;;7364311;19;1878;-68
2023/03/11 06:16:29;;;;;;;;;;;;;;;;;;7365166;19;835;-68
2023/03/11 06:19:01;;;;;;;;;;;;;;;;;;7365222;19;708;-68
2023/03/11 06:21:33;;;;;;;;;;;;;;;;;;7365317;19;810;-68
2023/03/11 06:24:01;;;;;;;;;;;;;;;;;;7362021;19;1290;-68
2023/03/11 06:26:30;;;;;;;;;;;;;;;;;;7364495;19;871;-68
2023/03/11 06:28:59;;;;;;;;;;;;;;;;;;7363808;19;801;-68
2023/03/11 06:31:27;;;;;;;;;;;;;;;;;;7364683;19;864;-68
2023/03/11 06:34:00;;;;;;;;;;;;;;;;;;7360600;19;1849;-68
2023/03/11 06:36:29;;;;;;;;;;;;;;;;;;7364516;19;835;-68
2023/03/11 06:38:57;;;;;;;;;;;;;;;;;;7367158;19;1784;-68
2023/03/11 06:41:26;;;;;;;;;;;;;;;;;;7364714;19;844;-68
2023/03/11 06:43:55;;;;;;;;;;;;;;;;;;7363454;19;2039;-68
2023/03/11 06:46:23;;;;;;;;;;;;;;;;;;7364125;19;826;-68
2023/03/11 06:48:53;;;;;;;;;;;;;;;;;;7364189;19;782;-68
2023/03/11 06:51:22;;;;;;;;;;;;;;;;;;7361869;19;902;-68
2023/03/11 06:53:51;;;;;;;;;;;;;;;;;;7359188;19;1889;-68
2023/03/11 06:56:20;;;;;;;;;;;;;;;;;;7363850;19;882;-68
2023/03/11 06:58:53;;;;;;;;;;;;;;;;;;7362706;19;795;-68
2023/03/11 07:01:21;;;;;;;;;;;;;;;;;;7363841;19;819;-68
2023/03/11 07:03:50;;;;;;;;;;;;;;;;;;7360553;19;1377;-68
2023/03/11 07:06:18;;;;;;;;;;;;;;;;;;7362273;19;810;-67
2023/03/11 07:08:47;;;;;;;;;;;;;;;;;;7361846;19;701;-68
2023/03/11 07:11:15;;;;;;;;;;;;;;;;;;7362614;19;787;-68
2023/03/11 07:13:44;;;;;;;;;;;;;;;;;;7364251;19;1944;-68
2023/03/11 07:16:14;;;;;;;;;;;;;;;;;;7364180;19;792;-68
2023/03/11 07:18:42;;;;;;;;;;;;;;;;;;7362005;19;867;-68
2023/03/11 07:21:10;;;;;;;;;;;;;;;;;;7364436;19;797;-68
2023/03/11 07:23:38;;;;;;;;;;;;;;;;;;7362288;19;1274;-68
2023/03/11 07:26:06;;;;;;;;;;;;;;;;;;7362973;19;783;-68
2023/03/11 07:28:34;;;;;;;;;;;;;;;;;;7363309;19;782;-68
2023/03/11 07:31:03;;;;;;;;;;;;;;;;;;7363842;19;1069;-68
2023/03/11 07:33:31;;;;;;;;;;;;;;;;;;7359015;19;1853;-68
2023/03/11 07:35:59;;;;;;;;;;;;;;;;;;7363503;19;1759;-68
2023/03/11 07:38:27;;;;;;;;;;;;;;;;;;7365416;19;1844;-69
2023/03/11 07:40:55;;;;;;;;;;;;;;;;;;7360776;19;798;-67
2023/03/11 07:43:23;;;;;;;;;;;;;;;;;;7359012;19;1433;-67
2023/03/11 07:45:53;;;;;;;;;;;;;;;;;;7362702;19;836;-67
2023/03/11 07:48:21;;;;;;;;;;;;;;;;;;7361392;19;917;-67
2023/03/11 07:50:50;;;;;;;;;;;;;;;;;;7362996;19;783;-66
2023/03/11 07:53:18;;;;;;;;;;;;;;;;;;7360551;19;1841;-67
2023/03/11 07:55:46;;;;;;;;;;;;;;;;;;7362213;19;802;-66
2023/03/11 07:58:14;;;;;;;;;;;;;;;;;;7361029;19;807;-66
2023/03/11 08:00:42;;;;;;;;;;;;;;;;;;7362892;19;961;-67
2023/03/11 08:03:10;;;;;;;;;;;;;;;;;;7364122;19;1282;-66
2023/03/11 08:05:39;;;;;;;;;;;;;;;;;;7368782;19;793;-66
2023/03/11 08:08:07;;;;;;;;;;;;;;;;;;7367797;19;826;-66
2023/03/11 08:10:35;;;;;;;;;;;;;;;;;;7368788;19;802;-67
2023/03/11 08:13:03;;;;;;;;;;;;;;;;;;7366824;19;1842;-67
2023/03/11 08:15:31;;;;;;;;;;;;;;;;;;7368677;19;776;-67
2023/03/11 08:17:59;;;;;;;;;;;;;;;;;;7367173;19;826;-67
2023/03/11 08:20:27;;;;;;;;;;;;;;;;;;7368597;19;821;-67
2023/03/11 08:22:56;;;;;;;;;;;;;;;;;;7367195;19;1278;-66
2023/03/11 08:25:24;;;;;;;;;;;;;;;;;;7368147;19;1111;-67
2023/03/11 08:27:52;;;;;;;;;;;;;;;;;;7368644;19;825;-66
2023/03/11 08:30:23;;;;;;;;;;;;;;;;;;7368866;19;781;-67
2023/03/11 08:32:51;;;;;;;;;;;;;;;;;;7366251;19;1886;-67
2023/03/11 08:35:19;;;;;;;;;;;;;;;;;;7368646;19;830;-67
2023/03/11 08:37:47;;;;;;;;;;;;;;;;;;7367686;19;834;-67
2023/03/11 08:40:16;;;;;;;;;;;;;;;;;;7368267;19;853;-67
2023/03/11 08:42:44;;;;;;;;;;;;;;;;;;7366526;19;1282;-67
2023/03/11 08:45:12;;;;;;;;;;;;;;;;;;7369705;19;857;-68
2023/03/11 08:47:40;;;;;;;;;;;;;;;;;;7376594;19;1209;-67
2023/03/11 08:50:08;;;;;;;;;;;;;;;;;;7376647;19;799;-67
2023/03/11 08:52:36;;;;;;;;;;;;;;;;;;7378153;19;1360;-67
2023/03/11 08:55:05;;;;;;;;;;;;;;;;;;7375093;19;1833;-68
2023/03/11 08:57:33;;;;;;;;;;;;;;;;;;7373322;19;862;-68
2023/03/11 09:00:01;;;;;;;;;;;;;;;;;;7375869;19;821;-68
2023/03/11 09:02:29;;;;;;;;;;;;;;;;;;7374378;19;1755;-67
2023/03/11 09:04:57;;;;;;;;;;;;;;;;;;7373248;19;857;-67
2023/03/11 09:07:26;;;;;;;;;;;;;;;;;;7374831;19;821;-67
2023/03/11 09:09:54;;;;;;;;;;;;;;;;;;7372163;19;829;-67
2023/03/11 09:12:22;;;;;;;;;;;;;;;;;;7373042;19;1357;-67
2023/03/11 09:14:50;;;;;;;;;;;;;;;;;;7368981;19;1857;-67
2023/03/11 09:17:18;;;;;;;;;;;;;;;;;;7365880;19;840;-68
2023/03/11 09:19:46;;;;;;;;;;;;;;;;;;7366834;19;821;-67
2023/03/11 09:22:15;;;;;;;;;;;;;;;;;;7366453;19;1315;-66
2023/03/11 09:24:43;;;;;;;;;;;;;;;;;;7367481;19;786;-67
2023/03/11 09:27:11;;;;;;;;;;;;;;;;;;7366829;19;874;-67
2023/03/11 09:29:40;;;;;;;;;;;;;;;;;;7365782;19;875;-68
2023/03/11 09:32:08;;;;;;;;;;;;;;;;;;7364878;19;1271;-68
2023/03/11 09:34:36;;;;;;;;;;;;;;;;;;7364456;19;1843;-68
2023/03/11 09:37:04;;;;;;;;;;;;;;;;;;7366558;19;861;-68
2023/03/11 09:39:32;;;;;;;;;;;;;;;;;;7366525;19;825;-68
2023/03/11 09:42:00;;;;;;;;;;;;;;;;;;7365583;19;1286;-68
2023/03/11 09:44:29;;;;;;;;;;;;;;;;;;7365130;19;790;-68
2023/03/11 09:46:57;;;;;;;;;;;;;;;;;;7365814;19;798;-68
2023/03/11 09:49:25;;;;;;;;;;;;;;;;;;7365844;19;857;-68
2023/03/11 09:51:53;;;;;;;;;;;;;;;;;;7364561;19;1282;-68
2023/03/11 09:54:22;;;;;;;;;;;;;;;;;;7364660;19;1854;-67
2023/03/11 09:56:50;;;;;;;;;;;;;;;;;;7366230;19;821;-67
2023/03/11 09:59:19;;;;;;;;;;;;;;;;;;7365412;19;774;-67
2023/03/11 10:01:47;;;;;;;;;;;;;;;;;;7364278;19;782;-67
2023/03/11 10:04:15;;;;;;;;;;;;;;;;;;7363111;19;841;-67
2023/03/11 10:06:43;;;;;;;;;;;;;;;;;;7365527;19;810;-67
2023/03/11 10:09:11;;;;;;;;;;;;;;;;;;7366445;19;1306;-67
2023/03/11 10:11:43;;;;;;;;;;;;;;;;;;7365585;19;853;-68
2023/03/11 10:14:11;;;;;;;;;;;;;;;;;;7363762;19;1846;-68
2023/03/11 10:16:40;;;;;;;;;;;;;;;;;;7366068;19;804;-68
2023/03/11 10:19:08;;;;;;;;;;;;;;;;;;7365374;19;857;-68
2023/03/11 10:21:36;;;;;;;;;;;;;;;;;;7365641;19;826;-68
2023/03/11 10:24:04;;;;;;;;;;;;;;;;;;7362487;19;1341;-68
2023/03/11 10:26:32;;;;;;;;;;;;;;;;;;7363132;19;873;-68
2023/03/11 10:29:00;;;;;;;;;;;;;;;;;;7364061;19;812;-68
2023/03/11 10:31:29;;;;;;;;;;;;;;;;;;7365876;19;814;-68
2023/03/11 10:33:57;;;;;;;;;;;;;;;;;;7362811;19;1863;-68
2023/03/11 10:36:26;;;;;;;;;;;;;;;;;;7365729;19;814;-68
2023/03/11 10:38:54;;;;;;;;;;;;;;;;;;7364856;19;1106;-67
2023/03/11 10:41:22;;;;;;;;;;;;;;;;;;7365580;19;814;-68
2023/03/11 10:43:50;;;;;;;;;;;;;;;;;;7361125;19;1285;-67
2023/03/11 10:46:18;;;;;;;;;;;;;;;;;;7365253;19;818;-68
2023/03/11 10:48:46;;;;;;;;;;;;;;;;;;7364248;19;808;-67
2023/03/11 10:51:15;;;;;;;;;;;;;;;;;;7369658;19;845;-67
2023/03/11 10:53:43;;;;;;;;;;;;;;;;;;7361804;19;1867;-67
2023/03/11 10:56:11;;;;;;;;;;;;;;;;;;7364833;19;1508;-68
2023/03/11 10:58:39;;;;;;;;;;;;;;;;;;7363961;19;797;-69
2023/03/11 11:01:07;;;;;;;;;;;;;;;;;;7364434;19;862;-67
2023/03/11 11:03:35;;;;;;;;;;;;;;;;;;7362099;19;1282;-67
2023/03/11 11:06:04;;;;;;;;;;;;;;;;;;7364716;19;826;-67
2023/03/11 11:08:32;;;;;;;;;;;;;;;;;;7363345;19;817;-67
2023/03/11 11:11:00;;;;;;;;;;;;;;;;;;7363874;19;874;-67
2023/03/11 11:13:29;;;;;;;;;;;;;;;;;;7360821;19;1842;-67
2023/03/11 11:15:57;;;;;;;;;;;;;;;;;;7362509;19;795;-67
2023/03/11 11:18:25;;;;;;;;;;;;;;;;;;7361083;19;803;-67
2023/03/11 11:20:53;;;;;;;;;;;;;;;;;;7364358;19;865;-67
2023/03/11 11:23:21;;;;;;;;;;;;;;;;;;7361473;19;1280;-67
2023/03/11 11:25:50;;;;;;;;;;;;;;;;;;7364322;19;794;-68
2023/03/11 11:28:18;;;;;;;;;;;;;;;;;;7362788;19;773;-67
2023/03/11 11:30:46;;;;;;;;;;;;;;;;;;7363434;19;807;-67
2023/03/11 11:33:14;;;;;;;;;;;;;;;;;;7361813;19;1289;-67
2023/03/11 11:35:42;;;;;;;;;;;;;;;;;;7361127;19;1838;-67
2023/03/11 11:38:10;;;;;;;;;;;;;;;;;;7366089;19;792;-68
2023/03/11 11:40:39;;;;;;;;;;;;;;;;;;7369228;19;825;-67
2023/03/11 11:43:07;;;;;;;;;;;;;;;;;;7368108;19;1299;-67
2023/03/11 11:45:35;;;;;;;;;;;;;;;;;;7369358;19;865;-67
2023/03/11 11:48:03;;;;;;;;;;;;;;;;;;7368025;19;783;-67
2023/03/11 11:50:31;;;;;;;;;;;;;;;;;;7373947;19;1516;-67
2023/03/11 11:53:00;;;;;;;;;;;;;;;;;;7368462;19;1365;-67
2023/03/11 11:55:28;;;;;;;;;;;;;;;;;;7367573;19;1849;-67
2023/03/11 11:57:56;;;;;;;;;;;;;;;;;;7368630;19;866;-68
2023/03/11 12:00:24;;;;;;;;;;;;;;;;;;7369131;19;799;-67
2023/03/11 12:02:53;;;;;;;;;;;;;;;;;;7367586;19;1297;-67
2023/03/11 12:05:21;;;;;;;;;;;;;;;;;;7368438;19;811;-67
2023/03/11 12:07:50;;;;;;;;;;;;;;;;;;7368497;19;896;-68
2023/03/11 12:10:18;;;;;;;;;;;;;;;;;;7369156;19;770;-67
2023/03/11 12:12:46;;;;;;;;;;;;;;;;;;7367497;19;1242;-67
2023/03/11 12:15:14;;;;;;;;;;;;;;;;;;7367731;19;1837;-67
2023/03/11 12:17:42;;;;;;;;;;;;;;;;;;7367683;19;826;-68
2023/03/11 12:20:10;;;;;;;;;;;;;;;;;;7369100;19;843;-67
2023/03/11 12:22:38;;;;;;;;;;;;;;;;;;7368392;19;1286;-67
2023/03/11 12:25:07;;;;;;;;;;;;;;;;;;7368624;19;767;-67
2023/03/11 12:27:35;;;;;;;;;;;;;;;;;;7368124;19;821;-67
2023/03/11 12:30:03;;;;;;;;;;;;;;;;;;7368895;19;811;-67
2023/03/11 12:32:31;;;;;;;;;;;;;;;;;;7367080;19;1309;-67
2023/03/11 12:34:59;;;;;;;;;;;;;;;;;;7367511;19;1871;-67
2023/03/11 12:37:27;;;;;;;;;;;;;;;;;;7367762;19;834;-68
2023/03/11 12:39:56;;;;;;;;;;;;;;;;;;7367482;19;871;-67
2023/03/11 12:42:24;;;;;;;;;;;;;;;;;;7367225;19;1356;-67
2023/03/11 12:44:52;;;;;;;;;;;;;;;;;;7368185;19;892;-67
2023/03/11 12:47:21;;;;;;;;;;;;;;;;;;7368375;19;874;-68
2023/03/11 12:49:50;;;;;;;;;;;;;;;;;;7364324;19;906;-68
2023/03/11 12:52:18;;;;;;;;;;;;;;;;;;7366696;19;1342;-67
2023/03/11 12:54:46;;;;;;;;;;;;;;;;;;7365550;19;1845;-67
2023/03/11 12:57:15;;;;;;;;;;;;;;;;;;7367930;19;811;-67
2023/03/11 12:59:43;;;;;;;;;;;;;;;;;;7365509;19;873;-67
2023/03/11 13:02:11;;;;;;;;;;;;;;;;;;7365421;19;1286;-68
2023/03/11 13:04:39;;;;;;;;;;;;;;;;;;7367497;19;873;-67
2023/03/11 13:07:07;;;;;;;;;;;;;;;;;;7367900;19;757;-67
2023/03/11 13:09:36;;;;;;;;;;;;;;;;;;7366951;19;794;-67
2023/03/11 13:12:04;;;;;;;;;;;;;;;;;;7367867;19;1285;-67
2023/03/11 13:14:32;;;;;;;;;;;;;;;;;;7366030;19;1861;-68
2023/03/11 13:17:00;;;;;;;;;;;;;;;;;;7366090;19;844;-67
2023/03/11 13:19:28;;;;;;;;;;;;;;;;;;7366028;19;837;-68
2023/03/11 13:21:58;;;;;;;;;;;;;;;;;;7367095;19;1344;-67
2023/03/11 13:24:28;;;;;;;;;;;;;;;;;;7367345;19;882;-67
2023/03/11 13:26:56;;;;;;;;;;;;;;;;;;7367150;19;770;-67
2023/03/11 13:29:24;;;;;;;;;;;;;;;;;;7366736;19;817;-67
2023/03/11 13:31:52;;;;;;;;;;;;;;;;;;7366935;19;1329;-67
2023/03/11 13:34:20;;;;;;;;;;;;;;;;;;7366552;19;1831;-67
2023/03/11 13:36:49;;;;;;;;;;;;;;;;;;7365541;19;845;-68
2023/03/11 13:39:17;;;;;;;;;;;;;;;;;;7365502;19;809;-67
2023/03/11 13:41:46;;;;;;;;;;;;;;;;;;7365572;19;805;-67
2023/03/11 13:44:14;;;;;;;;;;;;;;;;;;7363261;19;1326;-68
2023/03/11 13:46:43;;;;;;;;;;;;;;;;;;7366452;19;774;-67
2023/03/11 13:49:11;;;;;;;;;;;;;;;;;;7364746;19;825;-67
2023/03/11 13:51:39;;;;;;;;;;;;;;;;;;7366122;19;809;-68
2023/03/11 13:54:08;;;;;;;;;;;;;;;;;;7362722;19;1262;-67
2023/03/11 13:56:36;;;;;;;;;;;;;;;;;;7362627;19;1853;-68
2023/03/11 13:59:04;;;;;;;;;;;;;;;;;;7365672;19;793;-68
2023/03/11 14:01:32;;;;;;;;;;;;;;;;;;7364402;19;803;-68
2023/03/11 14:04:00;;;;;;;;;;;;;;;;;;7362908;19;1262;-68
2023/03/11 14:06:28;;;;;;;;;;;;;;;;;;7365471;19;782;-67
2023/03/11 14:08:56;;;;;;;;;;;;;;;;;;7364343;19;809;-67
2023/03/11 14:11:25;;;;;;;;;;;;;;;;;;7366009;19;798;-67
2023/03/11 14:13:54;;;;;;;;;;;;;;;;;;7363529;19;1259;-67
2023/03/11 14:16:22;;;;;;;;;;;;;;;;;;7363698;19;1850;-67
2023/03/11 14:18:50;;;;;;;;;;;;;;;;;;7365702;19;870;-67
2023/03/11 14:21:18;;;;;;;;;;;;;;;;;;7366179;19;841;-67
2023/03/11 14:23:46;;;;;;;;;;;;;;;;;;7363146;19;1278;-67
2023/03/11 14:26:14;;;;;;;;;;;;;;;;;;7365350;19;857;-67
2023/03/11 14:28:43;;;;;;;;;;;;;;;;;;7364932;19;810;-67
2023/03/11 14:31:11;;;;;;;;;;;;;;;;;;7365953;19;779;-68
2023/03/11 14:33:39;;;;;;;;;;;;;;;;;;7362613;19;1278;-68
2023/03/11 14:36:07;;;;;;;;;;;;;;;;;;7362152;19;1861;-67
2023/03/11 14:38:35;;;;;;;;;;;;;;;;;;7365492;19;1913;-68
2023/03/11 14:41:03;;;;;;;;;;;;;;;;;;7364146;19;863;-68
2023/03/11 14:43:32;;;;;;;;;;;;;;;;;;7361305;19;1368;-68
2023/03/11 14:46:00;;;;;;;;;;;;;;;;;;7364304;19;812;-68
2023/03/11 14:48:28;;;;;;;;;;;;;;;;;;7362892;19;806;-68
2023/03/11 14:50:56;;;;;;;;;;;;;;;;;;7363767;19;814;-68
2023/03/11 14:53:25;;;;;;;;;;;;;;;;;;7361274;19;1295;-68
2023/03/11 14:55:53;;;;;;;;;;;;;;;;;;7361422;19;1869;-68
2023/03/11 14:58:22;;;;;;;;;;;;;;;;;;7363198;19;803;-67
2023/03/11 15:00:50;;;;;;;;;;;;;;;;;;7362987;19;830;-68
2023/03/11 15:03:18;;;;;;;;;;;;;;;;;;7361690;19;1365;-66
2023/03/11 15:05:47;;;;;;;;;;;;;;;;;;7363875;19;784;-67
2023/03/11 15:08:15;;;;;;;;;;;;;;;;;;7361555;19;824;-66
2023/03/11 15:10:43;;;;;;;;;;;;;;;;;;7363889;19;846;-67
2023/03/11 15:13:11;;;;;;;;;;;;;;;;;;7365335;19;1305;-66
2023/03/11 15:15:39;;;;;;;;;;;;;;;;;;7369063;19;1807;-66
2023/03/11 15:18:07;;;;;;;;;;;;;;;;;;7367794;19;798;-66
2023/03/11 15:20:36;;;;;;;;;;;;;;;;;;7369639;19;857;-67
2023/03/11 15:23:04;;;;;;;;;;;;;;;;;;7369056;19;1321;-67
2023/03/11 15:25:33;;;;;;;;;;;;;;;;;;7369983;19;857;-67
2023/03/11 15:28:01;;;;;;;;;;;;;;;;;;7369124;19;856;-67
2023/03/11 15:30:29;;;;;;;;;;;;;;;;;;7369469;19;762;-66
2023/03/11 15:32:57;;;;;;;;;;;;;;;;;;7368184;19;1211;-67
2023/03/11 15:35:25;;;;;;;;;;;;;;;;;;7367927;19;1845;-66
2023/03/11 15:37:53;;;;;;;;;;;;;;;;;;7367401;19;799;-66
2023/03/11 15:40:22;;;;;;;;;;;;;;;;;;7367407;19;905;-68
2023/03/11 15:42:50;;;;;;;;;;;;;;;;;;7367408;19;1195;-66
2023/03/11 15:45:18;;;;;;;;;;;;;;;;;;7369017;19;782;-66
2023/03/11 15:47:46;;;;;;;;;;;;;;;;;;7368466;19;872;-66
2023/03/11 15:50:14;;;;;;;;;;;;;;;;;;7368565;19;855;-66
2023/03/11 15:52:42;;;;;;;;;;;;;;;;;;7367433;19;1262;-66
2023/03/11 15:55:11;;;;;;;;;;;;;;;;;;7367911;19;1841;-66
2023/03/11 15:57:39;;;;;;;;;;;;;;;;;;7366902;19;824;-66
2023/03/11 16:00:07;;;;;;;;;;;;;;;;;;7368626;19;810;-66
2023/03/11 16:02:36;;;;;;;;;;;;;;;;;;7368076;19;1278;-66
2023/03/11 16:05:04;;;;;;;;;;;;;;;;;;7368695;19;1562;-66
2023/03/11 16:07:32;;;;;;;;;;;;;;;;;;7366250;19;829;-66
2023/03/11 16:10:00;;;;;;;;;;;;;;;;;;7368682;19;898;-66
2023/03/11 16:12:28;;;;;;;;;;;;;;;;;;7368237;19;1302;-65
2023/03/11 16:14:56;;;;;;;;;;;;;;;;;;7368637;19;811;-66
2023/03/11 16:17:25;;;;;;;;;;;;;;;;;;7368296;19;802;-66
2023/03/11 16:19:53;;;;;;;;;;;;;;;;;;7366875;19;735;-65
2023/03/11 16:22:21;;;;;;;;;;;;;;;;;;7366552;19;1327;-66
2023/03/11 16:24:49;;;;;;;;;;;;;;;;;;7366416;19;801;-66
2023/03/11 16:27:17;;;;;;;;;;;;;;;;;;7368287;19;798;-66
2023/03/11 16:29:45;;;;;;;;;;;;;;;;;;7367398;19;811;-65
2023/03/11 16:32:13;;;;;;;;;;;;;;;;;;7364795;19;1278;-68
2023/03/11 16:34:42;;;;;;;;;;;;;;;;;;7366731;19;808;-65
2023/03/11 16:37:10;;;;;;;;;;;;;;;;;;7365548;19;1841;-66
2023/03/11 16:39:38;;;;;;;;;;;;;;;;;;7366548;19;823;-65
2023/03/11 16:42:06;;;;;;;;;;;;;;;;;;7367191;19;1277;-65
2023/03/11 16:44:34;;;;;;;;;;;;;;;;;;7367145;19;837;-65
2023/03/11 16:47:02;;;;;;;;;;;;;;;;;;7367501;19;805;-65
2023/03/11 16:49:30;;;;;;;;;;;;;;;;;;7365694;19;814;-65
2023/03/11 16:51:59;;;;;;;;;;;;;;;;;;7366609;19;1187;-65
2023/03/11 16:54:27;;;;;;;;;;;;;;;;;;7367912;19;842;-67
2023/03/11 16:56:55;;;;;;;;;;;;;;;;;;7365822;19;1845;-67
2023/03/11 16:59:23;;;;;;;;;;;;;;;;;;7364038;19;878;-67
2023/03/11 17:01:51;;;;;;;;;;;;;;;;;;7367371;19;881;-67
2023/03/11 17:04:19;;;;;;;;;;;;;;;;;;7365796;19;842;-65
2023/03/11 17:06:48;;;;;;;;;;;;;;;;;;7366493;19;786;-65
2023/03/11 17:09:16;;;;;;;;;;;;;;;;;;7365653;19;861;-65
2023/03/11 17:11:44;;;;;;;;;;;;;;;;;;7366466;19;864;-68
2023/03/11 17:14:12;;;;;;;;;;;;;;;;;;7363550;19;1281;-66
2023/03/11 17:16:40;;;;;;;;;;;;;;;;;;7364755;19;1832;-65
2023/03/11 17:19:08;;;;;;;;;;;;;;;;;;7365002;19;764;-67